sensor_id;sensor_type;location;lat;lon;timestamp;P1;durP1;ratioP1;P2;durP2;ratioP2
48211;SDS011;34000;48.772;9.162;2022-09-21T00:00:29;2.47;;;1.40;;
48211;SDS011;34000;48.772;9.162;2022-09-21T00:02:56;1.33;;;1.05;;
48211;SDS011;34000;48.772;9.162;2022-09-21T00:05:23;2.10;;;1.38;;
48211;SDS011;34000;48.772;9.162;2022-09-21T00:07:49;2.97;;;1.40;;
48211;SDS011;34000;48.772;9.162;2022-09-21T00:10:15;3.78;;;1.92;;
48211;SDS011;34000;48.772;9.162;2022-09-21T00:12:44;1.73;;;1.40;;
48211;SDS011;34000;48.772;9.162;2022-09-21T00:15:12;3.15;;;1.42;;
48211;SDS011;34000;48.772;9.162;2022-09-21T00:17:38;1.50;;;1.20;;
48211;SDS011;34000;48.772;9.162;2022-09-21T00:20:04;4.70;;;1.45;;
48211;SDS011;34000;48.772;9.162;2022-09-21T00:22:31;1.75;;;1.10;;
48211;SDS011;34000;48.772;9.162;2022-09-21T00:24:57;1.52;;;1.10;;
48211;SDS011;34000;48.772;9.162;2022-09-21T00:27:23;1.23;;;1.10;;
48211;SDS011;34000;48.772;9.162;2022-09-21T00:29:54;1.30;;;1.20;;
48211;SDS011;34000;48.772;9.162;2022-09-21T00:32:20;3.10;;;1.40;;
48211;SDS011;34000;48.772;9.162;2022-09-21T00:34:46;1.77;;;1.30;;
48211;SDS011;34000;48.772;9.162;2022-09-21T00:37:11;4.03;;;1.70;;
48211;SDS011;34000;48.772;9.162;2022-09-21T00:39:37;1.38;;;1.20;;
48211;SDS011;34000;48.772;9.162;2022-09-21T00:42:07;1.75;;;1.35;;
48211;SDS011;34000;48.772;9.162;2022-09-21T00:44:34;1.25;;;1.10;;
48211;SDS011;34000;48.772;9.162;2022-09-21T00:47:05;2.95;;;1.83;;
48211;SDS011;34000;48.772;9.162;2022-09-21T00:49:34;2.03;;;1.40;;
48211;SDS011;34000;48.772;9.162;2022-09-21T00:52:00;2.55;;;1.60;;
48211;SDS011;34000;48.772;9.162;2022-09-21T00:54:30;2.13;;;1.50;;
48211;SDS011;34000;48.772;9.162;2022-09-21T00:57:02;1.92;;;1.40;;
48211;SDS011;34000;48.772;9.162;2022-09-21T00:59:29;2.42;;;1.60;;
48211;SDS011;34000;48.772;9.162;2022-09-21T01:01:58;2.35;;;1.60;;
48211;SDS011;34000;48.772;9.162;2022-09-21T01:04:24;1.48;;;1.23;;
48211;SDS011;34000;48.772;9.162;2022-09-21T01:06:52;1.63;;;1.20;;
48211;SDS011;34000;48.772;9.162;2022-09-21T01:09:19;4.45;;;1.73;;
48211;SDS011;34000;48.772;9.162;2022-09-21T01:14:45;1.58;;;1.40;;
48211;SDS011;34000;48.772;9.162;2022-09-21T01:17:23;1.35;;;1.25;;
48211;SDS011;34000;48.772;9.162;2022-09-21T01:28:22;3.42;;;2.03;;
48211;SDS011;34000;48.772;9.162;2022-09-21T01:30:58;1.45;;;1.20;;
48211;SDS011;34000;48.772;9.162;2022-09-21T01:33:31;2.42;;;1.05;;
48211;SDS011;34000;48.772;9.162;2022-09-21T01:36:13;2.22;;;1.60;;
48211;SDS011;34000;48.772;9.162;2022-09-21T01:38:46;2.80;;;1.73;;
48211;SDS011;34000;48.772;9.162;2022-09-21T01:41:17;2.70;;;1.65;;
48211;SDS011;34000;48.772;9.162;2022-09-21T01:43:45;3.85;;;1.70;;
48211;SDS011;34000;48.772;9.162;2022-09-21T01:46:16;2.75;;;1.60;;
48211;SDS011;34000;48.772;9.162;2022-09-21T01:48:49;4.60;;;1.77;;
48211;SDS011;34000;48.772;9.162;2022-09-21T01:51:19;2.85;;;1.50;;
48211;SDS011;34000;48.772;9.162;2022-09-21T01:53:48;1.67;;;1.20;;
48211;SDS011;34000;48.772;9.162;2022-09-21T01:56:24;2.65;;;1.42;;
48211;SDS011;34000;48.772;9.162;2022-09-21T01:59:00;2.83;;;1.65;;
48211;SDS011;34000;48.772;9.162;2022-09-21T02:01:28;3.10;;;1.63;;
48211;SDS011;34000;48.772;9.162;2022-09-21T02:03:59;3.35;;;1.80;;
48211;SDS011;34000;48.772;9.162;2022-09-21T02:06:28;2.40;;;1.67;;
48211;SDS011;34000;48.772;9.162;2022-09-21T02:08:55;5.00;;;1.52;;
48211;SDS011;34000;48.772;9.162;2022-09-21T02:11:22;2.92;;;1.75;;
48211;SDS011;34000;48.772;9.162;2022-09-21T02:13:48;3.00;;;1.55;;
48211;SDS011;34000;48.772;9.162;2022-09-21T02:16:33;4.28;;;1.80;;
48211;SDS011;34000;48.772;9.162;2022-09-21T02:24:27;2.10;;;1.30;;
48211;SDS011;34000;48.772;9.162;2022-09-21T02:30:04;2.15;;;1.65;;
48211;SDS011;34000;48.772;9.162;2022-09-21T02:32:44;4.95;;;1.35;;
48211;SDS011;34000;48.772;9.162;2022-09-21T02:37:44;2.17;;;1.33;;
48211;SDS011;34000;48.772;9.162;2022-09-21T02:40:28;4.53;;;2.30;;
48211;SDS011;34000;48.772;9.162;2022-09-21T02:43:00;3.70;;;2.33;;
48211;SDS011;34000;48.772;9.162;2022-09-21T02:45:39;3.88;;;1.73;;
48211;SDS011;34000;48.772;9.162;2022-09-21T02:48:11;3.05;;;2.00;;
48211;SDS011;34000;48.772;9.162;2022-09-21T02:50:41;4.63;;;1.70;;
48211;SDS011;34000;48.772;9.162;2022-09-21T02:53:09;2.67;;;1.73;;
48211;SDS011;34000;48.772;9.162;2022-09-21T02:55:37;2.58;;;1.95;;
48211;SDS011;34000;48.772;9.162;2022-09-21T02:58:04;2.78;;;1.35;;
48211;SDS011;34000;48.772;9.162;2022-09-21T03:00:32;2.40;;;1.73;;
48211;SDS011;34000;48.772;9.162;2022-09-21T03:02:59;2.33;;;1.58;;
48211;SDS011;34000;48.772;9.162;2022-09-21T03:05:24;2.22;;;1.52;;
48211;SDS011;34000;48.772;9.162;2022-09-21T03:07:51;5.70;;;2.03;;
48211;SDS011;34000;48.772;9.162;2022-09-21T03:10:16;4.88;;;1.75;;
48211;SDS011;34000;48.772;9.162;2022-09-21T03:12:43;1.60;;;1.30;;
48211;SDS011;34000;48.772;9.162;2022-09-21T03:15:10;2.75;;;1.70;;
48211;SDS011;34000;48.772;9.162;2022-09-21T03:17:35;2.55;;;1.48;;
48211;SDS011;34000;48.772;9.162;2022-09-21T03:20:01;3.53;;;1.60;;
48211;SDS011;34000;48.772;9.162;2022-09-21T03:22:27;2.65;;;1.85;;
48211;SDS011;34000;48.772;9.162;2022-09-21T03:24:52;2.58;;;1.55;;
48211;SDS011;34000;48.772;9.162;2022-09-21T03:27:21;2.03;;;1.40;;
48211;SDS011;34000;48.772;9.162;2022-09-21T03:29:48;1.80;;;1.42;;
48211;SDS011;34000;48.772;9.162;2022-09-21T03:32:14;4.93;;;1.75;;
48211;SDS011;34000;48.772;9.162;2022-09-21T03:34:40;2.63;;;1.77;;
48211;SDS011;34000;48.772;9.162;2022-09-21T03:37:06;3.38;;;1.80;;
48211;SDS011;34000;48.772;9.162;2022-09-21T03:39:32;2.42;;;1.50;;
48211;SDS011;34000;48.772;9.162;2022-09-21T03:41:59;2.30;;;1.60;;
48211;SDS011;34000;48.772;9.162;2022-09-21T03:44:24;3.30;;;2.17;;
48211;SDS011;34000;48.772;9.162;2022-09-21T03:46:50;3.65;;;1.83;;
48211;SDS011;34000;48.772;9.162;2022-09-21T03:49:16;2.05;;;1.70;;
48211;SDS011;34000;48.772;9.162;2022-09-21T03:51:42;2.70;;;2.13;;
48211;SDS011;34000;48.772;9.162;2022-09-21T03:54:08;5.72;;;1.73;;
48211;SDS011;34000;48.772;9.162;2022-09-21T03:56:34;3.65;;;1.98;;
48211;SDS011;34000;48.772;9.162;2022-09-21T03:59:00;3.83;;;2.10;;
48211;SDS011;34000;48.772;9.162;2022-09-21T04:01:25;2.88;;;1.75;;
48211;SDS011;34000;48.772;9.162;2022-09-21T04:03:51;2.55;;;2.05;;
48211;SDS011;34000;48.772;9.162;2022-09-21T04:06:17;3.67;;;2.15;;
48211;SDS011;34000;48.772;9.162;2022-09-21T04:08:43;3.88;;;2.35;;
48211;SDS011;34000;48.772;9.162;2022-09-21T04:11:09;3.83;;;2.83;;
48211;SDS011;34000;48.772;9.162;2022-09-21T04:13:38;5.93;;;2.20;;
48211;SDS011;34000;48.772;9.162;2022-09-21T04:16:04;5.45;;;2.38;;
48211;SDS011;34000;48.772;9.162;2022-09-21T04:18:30;3.25;;;2.03;;
48211;SDS011;34000;48.772;9.162;2022-09-21T04:20:56;4.65;;;2.55;;
48211;SDS011;34000;48.772;9.162;2022-09-21T04:23:22;6.47;;;2.33;;
48211;SDS011;34000;48.772;9.162;2022-09-21T04:25:48;2.92;;;1.88;;
48211;SDS011;34000;48.772;9.162;2022-09-21T04:28:16;4.18;;;2.40;;
48211;SDS011;34000;48.772;9.162;2022-09-21T04:30:42;6.30;;;2.45;;
48211;SDS011;34000;48.772;9.162;2022-09-21T04:33:07;3.40;;;2.25;;
48211;SDS011;34000;48.772;9.162;2022-09-21T04:35:33;4.05;;;2.42;;
48211;SDS011;34000;48.772;9.162;2022-09-21T04:37:58;7.53;;;2.60;;
48211;SDS011;34000;48.772;9.162;2022-09-21T04:40:24;4.63;;;2.40;;
48211;SDS011;34000;48.772;9.162;2022-09-21T04:42:50;3.92;;;2.15;;
48211;SDS011;34000;48.772;9.162;2022-09-21T04:45:17;3.20;;;2.25;;
48211;SDS011;34000;48.772;9.162;2022-09-21T04:47:43;6.97;;;2.65;;
48211;SDS011;34000;48.772;9.162;2022-09-21T04:50:09;3.25;;;1.92;;
48211;SDS011;34000;48.772;9.162;2022-09-21T04:52:35;6.57;;;2.33;;
48211;SDS011;34000;48.772;9.162;2022-09-21T04:55:00;3.50;;;2.08;;
48211;SDS011;34000;48.772;9.162;2022-09-21T04:57:26;3.45;;;2.00;;
48211;SDS011;34000;48.772;9.162;2022-09-21T04:59:52;3.10;;;1.98;;
48211;SDS011;34000;48.772;9.162;2022-09-21T05:02:18;4.65;;;3.15;;
48211;SDS011;34000;48.772;9.162;2022-09-21T05:04:43;3.75;;;1.95;;
48211;SDS011;34000;48.772;9.162;2022-09-21T05:07:09;4.18;;;2.45;;
48211;SDS011;34000;48.772;9.162;2022-09-21T05:09:34;4.25;;;2.92;;
48211;SDS011;34000;48.772;9.162;2022-09-21T05:12:18;4.45;;;2.60;;
48211;SDS011;34000;48.772;9.162;2022-09-21T05:14:44;3.60;;;2.42;;
48211;SDS011;34000;48.772;9.162;2022-09-21T05:17:10;3.53;;;2.30;;
48211;SDS011;34000;48.772;9.162;2022-09-21T05:19:36;4.78;;;2.38;;
48211;SDS011;34000;48.772;9.162;2022-09-21T05:22:02;4.57;;;2.33;;
48211;SDS011;34000;48.772;9.162;2022-09-21T05:24:27;4.40;;;2.78;;
48211;SDS011;34000;48.772;9.162;2022-09-21T05:26:53;4.78;;;2.80;;
48211;SDS011;34000;48.772;9.162;2022-09-21T05:29:18;5.20;;;2.92;;
48211;SDS011;34000;48.772;9.162;2022-09-21T05:31:46;5.18;;;2.95;;
48211;SDS011;34000;48.772;9.162;2022-09-21T05:34:18;6.07;;;3.00;;
48211;SDS011;34000;48.772;9.162;2022-09-21T05:36:59;10.80;;;2.97;;
48211;SDS011;34000;48.772;9.162;2022-09-21T05:39:29;9.80;;;3.40;;
48211;SDS011;34000;48.772;9.162;2022-09-21T05:41:55;7.22;;;4.10;;
48211;SDS011;34000;48.772;9.162;2022-09-21T05:44:21;7.00;;;3.15;;
48211;SDS011;34000;48.772;9.162;2022-09-21T05:49:39;3.63;;;2.53;;
48211;SDS011;34000;48.772;9.162;2022-09-21T05:52:20;5.85;;;3.05;;
48211;SDS011;34000;48.772;9.162;2022-09-21T05:55:39;5.75;;;3.20;;
48211;SDS011;34000;48.772;9.162;2022-09-21T05:58:00;6.38;;;3.20;;
48211;SDS011;34000;48.772;9.162;2022-09-21T06:00:41;4.93;;;3.05;;
48211;SDS011;34000;48.772;9.162;2022-09-21T06:05:56;5.45;;;3.20;;
48211;SDS011;34000;48.772;9.162;2022-09-21T06:08:22;3.55;;;3.00;;
48211;SDS011;34000;48.772;9.162;2022-09-21T06:10:48;5.80;;;2.83;;
48211;SDS011;34000;48.772;9.162;2022-09-21T06:13:14;5.15;;;3.10;;
48211;SDS011;34000;48.772;9.162;2022-09-21T06:15:40;5.90;;;3.25;;
48211;SDS011;34000;48.772;9.162;2022-09-21T06:18:06;5.65;;;3.00;;
48211;SDS011;34000;48.772;9.162;2022-09-21T06:20:32;6.22;;;3.25;;
48211;SDS011;34000;48.772;9.162;2022-09-21T06:23:02;6.30;;;3.67;;
48211;SDS011;34000;48.772;9.162;2022-09-21T06:25:30;5.78;;;3.50;;
48211;SDS011;34000;48.772;9.162;2022-09-21T06:28:00;5.20;;;2.72;;
48211;SDS011;34000;48.772;9.162;2022-09-21T06:30:26;6.35;;;3.35;;
48211;SDS011;34000;48.772;9.162;2022-09-21T06:32:52;6.18;;;3.67;;
48211;SDS011;34000;48.772;9.162;2022-09-21T06:35:18;5.53;;;3.80;;
48211;SDS011;34000;48.772;9.162;2022-09-21T06:37:43;7.47;;;4.05;;
48211;SDS011;34000;48.772;9.162;2022-09-21T06:40:09;5.68;;;3.80;;
48211;SDS011;34000;48.772;9.162;2022-09-21T06:42:34;5.22;;;3.47;;
48211;SDS011;34000;48.772;9.162;2022-09-21T06:45:00;6.28;;;3.55;;
48211;SDS011;34000;48.772;9.162;2022-09-21T06:47:27;5.10;;;3.10;;
48211;SDS011;34000;48.772;9.162;2022-09-21T06:49:52;7.88;;;3.67;;
48211;SDS011;34000;48.772;9.162;2022-09-21T06:52:18;8.05;;;3.03;;
48211;SDS011;34000;48.772;9.162;2022-09-21T06:54:44;7.03;;;3.08;;
48211;SDS011;34000;48.772;9.162;2022-09-21T06:57:10;6.82;;;3.75;;
48211;SDS011;34000;48.772;9.162;2022-09-21T06:59:35;9.93;;;5.63;;
48211;SDS011;34000;48.772;9.162;2022-09-21T07:02:01;12.02;;;6.68;;
48211;SDS011;34000;48.772;9.162;2022-09-21T07:04:27;15.63;;;6.60;;
48211;SDS011;34000;48.772;9.162;2022-09-21T07:06:53;6.80;;;4.18;;
48211;SDS011;34000;48.772;9.162;2022-09-21T07:09:19;4.95;;;3.55;;
48211;SDS011;34000;48.772;9.162;2022-09-21T07:11:45;6.10;;;3.30;;
48211;SDS011;34000;48.772;9.162;2022-09-21T07:14:11;7.35;;;2.90;;
48211;SDS011;34000;48.772;9.162;2022-09-21T07:16:37;5.55;;;3.50;;
48211;SDS011;34000;48.772;9.162;2022-09-21T07:19:03;5.20;;;3.03;;
48211;SDS011;34000;48.772;9.162;2022-09-21T07:21:29;6.30;;;3.05;;
48211;SDS011;34000;48.772;9.162;2022-09-21T07:23:57;5.65;;;3.00;;
48211;SDS011;34000;48.772;9.162;2022-09-21T07:26:24;4.30;;;2.70;;
48211;SDS011;34000;48.772;9.162;2022-09-21T07:28:50;6.15;;;3.17;;
48211;SDS011;34000;48.772;9.162;2022-09-21T07:31:16;6.13;;;3.28;;
48211;SDS011;34000;48.772;9.162;2022-09-21T07:33:42;13.77;;;7.28;;
48211;SDS011;34000;48.772;9.162;2022-09-21T07:36:11;10.23;;;5.10;;
48211;SDS011;34000;48.772;9.162;2022-09-21T07:38:37;11.93;;;6.35;;
48211;SDS011;34000;48.772;9.162;2022-09-21T07:41:05;23.48;;;13.25;;
48211;SDS011;34000;48.772;9.162;2022-09-21T07:43:32;10.80;;;5.45;;
48211;SDS011;34000;48.772;9.162;2022-09-21T07:45:58;5.00;;;3.63;;
48211;SDS011;34000;48.772;9.162;2022-09-21T07:48:26;6.88;;;3.97;;
48211;SDS011;34000;48.772;9.162;2022-09-21T07:50:53;6.20;;;3.88;;
48211;SDS011;34000;48.772;9.162;2022-09-21T07:53:19;5.07;;;3.15;;
48211;SDS011;34000;48.772;9.162;2022-09-21T07:55:45;3.15;;;2.83;;
48211;SDS011;34000;48.772;9.162;2022-09-21T07:58:11;6.65;;;3.00;;
48211;SDS011;34000;48.772;9.162;2022-09-21T08:00:55;4.75;;;2.88;;
48211;SDS011;34000;48.772;9.162;2022-09-21T08:03:21;6.93;;;2.83;;
48211;SDS011;34000;48.772;9.162;2022-09-21T08:05:46;4.32;;;2.90;;
48211;SDS011;34000;48.772;9.162;2022-09-21T08:08:12;3.60;;;2.60;;
48211;SDS011;34000;48.772;9.162;2022-09-21T08:10:39;3.60;;;2.40;;
48211;SDS011;34000;48.772;9.162;2022-09-21T08:13:05;3.58;;;2.50;;
48211;SDS011;34000;48.772;9.162;2022-09-21T08:15:30;4.78;;;2.53;;
48211;SDS011;34000;48.772;9.162;2022-09-21T08:17:56;2.92;;;2.40;;
48211;SDS011;34000;48.772;9.162;2022-09-21T08:20:22;3.80;;;2.60;;
48211;SDS011;34000;48.772;9.162;2022-09-21T08:22:48;4.13;;;2.72;;
48211;SDS011;34000;48.772;9.162;2022-09-21T08:25:17;4.72;;;3.17;;
48211;SDS011;34000;48.772;9.162;2022-09-21T08:27:43;3.97;;;2.38;;
48211;SDS011;34000;48.772;9.162;2022-09-21T08:30:08;2.83;;;2.40;;
48211;SDS011;34000;48.772;9.162;2022-09-21T08:32:37;4.35;;;2.50;;
48211;SDS011;34000;48.772;9.162;2022-09-21T08:35:04;5.85;;;2.53;;
48211;SDS011;34000;48.772;9.162;2022-09-21T08:37:29;3.60;;;2.70;;
48211;SDS011;34000;48.772;9.162;2022-09-21T08:39:56;5.78;;;2.75;;
48211;SDS011;34000;48.772;9.162;2022-09-21T08:44:57;2.35;;;2.15;;
48211;SDS011;34000;48.772;9.162;2022-09-21T08:47:36;5.85;;;3.40;;
48211;SDS011;34000;48.772;9.162;2022-09-21T08:50:22;5.93;;;3.45;;
48211;SDS011;34000;48.772;9.162;2022-09-21T08:53:18;6.22;;;2.30;;
48211;SDS011;34000;48.772;9.162;2022-09-21T08:55:49;3.05;;;1.65;;
48211;SDS011;34000;48.772;9.162;2022-09-21T08:58:27;2.35;;;1.80;;
48211;SDS011;34000;48.772;9.162;2022-09-21T09:01:13;3.40;;;2.03;;
48211;SDS011;34000;48.772;9.162;2022-09-21T09:18:26;1.83;;;1.35;;
48211;SDS011;34000;48.772;9.162;2022-09-21T09:21:10;2.75;;;1.98;;
48211;SDS011;34000;48.772;9.162;2022-09-21T09:23:45;3.08;;;1.55;;
48211;SDS011;34000;48.772;9.162;2022-09-21T09:26:22;3.40;;;2.95;;
48211;SDS011;34000;48.772;9.162;2022-09-21T09:29:07;5.28;;;3.25;;
48211;SDS011;34000;48.772;9.162;2022-09-21T09:31:54;6.38;;;3.90;;
48211;SDS011;34000;48.772;9.162;2022-09-21T09:36:55;9.55;;;5.72;;
48211;SDS011;34000;48.772;9.162;2022-09-21T09:39:23;5.88;;;3.38;;
48211;SDS011;34000;48.772;9.162;2022-09-21T09:52:52;1.48;;;0.88;;
48211;SDS011;34000;48.772;9.162;2022-09-21T09:55:33;1.50;;;1.17;;
48211;SDS011;34000;48.772;9.162;2022-09-21T09:58:02;1.02;;;0.95;;
48211;SDS011;34000;48.772;9.162;2022-09-21T10:00:28;3.13;;;1.33;;
48211;SDS011;34000;48.772;9.162;2022-09-21T10:02:54;2.20;;;1.00;;
48211;SDS011;34000;48.772;9.162;2022-09-21T10:05:32;0.85;;;0.70;;
48211;SDS011;34000;48.772;9.162;2022-09-21T10:08:00;2.33;;;1.10;;
48211;SDS011;34000;48.772;9.162;2022-09-21T10:18:54;2.70;;;1.00;;
48211;SDS011;34000;48.772;9.162;2022-09-21T10:21:26;0.95;;;0.80;;
48211;SDS011;34000;48.772;9.162;2022-09-21T10:24:04;1.15;;;0.90;;
48211;SDS011;34000;48.772;9.162;2022-09-21T10:26:40;2.08;;;1.00;;
48211;SDS011;34000;48.772;9.162;2022-09-21T10:37:33;1.67;;;1.08;;
48211;SDS011;34000;48.772;9.162;2022-09-21T10:42:49;1.30;;;1.10;;
48211;SDS011;34000;48.772;9.162;2022-09-21T10:45:19;3.90;;;1.80;;
48211;SDS011;34000;48.772;9.162;2022-09-21T10:47:47;1.92;;;0.90;;
48211;SDS011;34000;48.772;9.162;2022-09-21T10:50:21;2.75;;;0.90;;
48211;SDS011;34000;48.772;9.162;2022-09-21T10:52:53;0.73;;;0.60;;
48211;SDS011;34000;48.772;9.162;2022-09-21T10:58:37;0.98;;;0.70;;
48211;SDS011;34000;48.772;9.162;2022-09-21T11:01:11;1.73;;;0.50;;
48211;SDS011;34000;48.772;9.162;2022-09-21T11:06:15;0.60;;;0.60;;
48211;SDS011;34000;48.772;9.162;2022-09-21T11:14:17;1.08;;;0.77;;
48211;SDS011;34000;48.772;9.162;2022-09-21T11:16:52;3.13;;;1.88;;
48211;SDS011;34000;48.772;9.162;2022-09-21T11:22:11;2.83;;;1.83;;
48211;SDS011;34000;48.772;9.162;2022-09-21T11:27:41;1.17;;;0.77;;
48211;SDS011;34000;48.772;9.162;2022-09-21T11:30:16;0.60;;;0.60;;
48211;SDS011;34000;48.772;9.162;2022-09-21T11:32:48;1.38;;;1.13;;
48211;SDS011;34000;48.772;9.162;2022-09-21T11:35:25;2.60;;;2.08;;
48211;SDS011;34000;48.772;9.162;2022-09-21T11:43:19;2.07;;;1.80;;
48211;SDS011;34000;48.772;9.162;2022-09-21T11:51:25;4.00;;;2.92;;
48211;SDS011;34000;48.772;9.162;2022-09-21T11:57:02;0.95;;;0.60;;
48211;SDS011;34000;48.772;9.162;2022-09-21T11:59:42;0.95;;;0.55;;
48211;SDS011;34000;48.772;9.162;2022-09-21T12:02:30;1.05;;;0.60;;
48211;SDS011;34000;48.772;9.162;2022-09-21T12:16:34;0.70;;;0.57;;
48211;SDS011;34000;48.772;9.162;2022-09-21T12:21:49;0.80;;;0.52;;
48211;SDS011;34000;48.772;9.162;2022-09-21T12:24:20;0.63;;;0.63;;
48211;SDS011;34000;48.772;9.162;2022-09-21T12:26:53;1.50;;;0.50;;
48211;SDS011;34000;48.772;9.162;2022-09-21T12:29:25;0.52;;;0.40;;
48211;SDS011;34000;48.772;9.162;2022-09-21T12:34:41;0.47;;;0.40;;
48211;SDS011;34000;48.772;9.162;2022-09-21T12:37:14;0.75;;;0.70;;
48211;SDS011;34000;48.772;9.162;2022-09-21T12:39:59;1.92;;;0.50;;
48211;SDS011;34000;48.772;9.162;2022-09-21T12:42:39;2.20;;;0.52;;
48211;SDS011;34000;48.772;9.162;2022-09-21T12:45:18;1.90;;;0.60;;
48211;SDS011;34000;48.772;9.162;2022-09-21T12:47:54;0.50;;;0.50;;
48211;SDS011;34000;48.772;9.162;2022-09-21T12:50:43;1.75;;;0.40;;
48211;SDS011;34000;48.772;9.162;2022-09-21T12:53:18;0.68;;;0.50;;
48211;SDS011;34000;48.772;9.162;2022-09-21T13:04:03;0.60;;;0.40;;
48211;SDS011;34000;48.772;9.162;2022-09-21T13:09:28;1.30;;;0.40;;
48211;SDS011;34000;48.772;9.162;2022-09-21T13:11:56;0.60;;;0.60;;
48211;SDS011;34000;48.772;9.162;2022-09-21T13:14:26;1.50;;;0.85;;
48211;SDS011;34000;48.772;9.162;2022-09-21T13:16:58;0.70;;;0.30;;
48211;SDS011;34000;48.772;9.162;2022-09-21T13:19:27;0.60;;;0.43;;
48211;SDS011;34000;48.772;9.162;2022-09-21T13:25:05;0.40;;;0.38;;
48211;SDS011;34000;48.772;9.162;2022-09-21T13:40:56;0.45;;;0.45;;
48211;SDS011;34000;48.772;9.162;2022-09-21T13:43:24;1.27;;;0.60;;
48211;SDS011;34000;48.772;9.162;2022-09-21T13:46:10;0.50;;;0.50;;
48211;SDS011;34000;48.772;9.162;2022-09-21T13:48:58;1.55;;;0.55;;
48211;SDS011;34000;48.772;9.162;2022-09-21T13:51:32;1.08;;;0.60;;
48211;SDS011;34000;48.772;9.162;2022-09-21T13:53:58;1.30;;;0.50;;
48211;SDS011;34000;48.772;9.162;2022-09-21T13:56:26;1.33;;;0.75;;
48211;SDS011;34000;48.772;9.162;2022-09-21T13:58:54;1.23;;;0.90;;
48211;SDS011;34000;48.772;9.162;2022-09-21T14:01:22;0.57;;;0.40;;
48211;SDS011;34000;48.772;9.162;2022-09-21T14:03:59;0.95;;;0.50;;
48211;SDS011;34000;48.772;9.162;2022-09-21T14:06:44;2.20;;;1.23;;
48211;SDS011;34000;48.772;9.162;2022-09-21T14:09:18;1.58;;;0.57;;
48211;SDS011;34000;48.772;9.162;2022-09-21T14:11:52;2.08;;;0.52;;
48211;SDS011;34000;48.772;9.162;2022-09-21T14:14:23;1.17;;;0.50;;
48211;SDS011;34000;48.772;9.162;2022-09-21T14:30:15;1.52;;;0.50;;
48211;SDS011;34000;48.772;9.162;2022-09-21T14:33:20;0.60;;;0.47;;
48211;SDS011;34000;48.772;9.162;2022-09-21T14:35:54;0.90;;;0.57;;
48211;SDS011;34000;48.772;9.162;2022-09-21T14:38:23;1.10;;;0.57;;
48211;SDS011;34000;48.772;9.162;2022-09-21T14:40:53;0.90;;;0.65;;
48211;SDS011;34000;48.772;9.162;2022-09-21T14:43:24;0.68;;;0.50;;
48211;SDS011;34000;48.772;9.162;2022-09-21T14:51:48;0.40;;;0.40;;
48211;SDS011;34000;48.772;9.162;2022-09-21T14:54:38;0.75;;;0.50;;
48211;SDS011;34000;48.772;9.162;2022-09-21T14:59:44;0.65;;;0.63;;
48211;SDS011;34000;48.772;9.162;2022-09-21T15:02:32;0.60;;;0.60;;
48211;SDS011;34000;48.772;9.162;2022-09-21T15:10:25;0.60;;;0.50;;
48211;SDS011;34000;48.772;9.162;2022-09-21T15:13:35;0.40;;;0.40;;
48211;SDS011;34000;48.772;9.162;2022-09-21T15:19:04;1.13;;;0.63;;
48211;SDS011;34000;48.772;9.162;2022-09-21T15:21:45;0.77;;;0.60;;
48211;SDS011;34000;48.772;9.162;2022-09-21T15:24:31;0.65;;;0.60;;
48211;SDS011;34000;48.772;9.162;2022-09-21T15:27:05;1.95;;;0.70;;
48211;SDS011;34000;48.772;9.162;2022-09-21T15:29:34;0.85;;;0.60;;
48211;SDS011;34000;48.772;9.162;2022-09-21T15:32:01;1.80;;;0.55;;
48211;SDS011;34000;48.772;9.162;2022-09-21T15:34:29;0.40;;;0.40;;
48211;SDS011;34000;48.772;9.162;2022-09-21T15:37:04;2.78;;;0.68;;
48211;SDS011;34000;48.772;9.162;2022-09-21T15:39:39;0.73;;;0.57;;
48211;SDS011;34000;48.772;9.162;2022-09-21T15:44:34;1.25;;;0.43;;
48211;SDS011;34000;48.772;9.162;2022-09-21T15:47:01;1.55;;;0.68;;
48211;SDS011;34000;48.772;9.162;2022-09-21T15:49:30;1.05;;;0.60;;
48211;SDS011;34000;48.772;9.162;2022-09-21T15:52:02;0.55;;;0.55;;
48211;SDS011;34000;48.772;9.162;2022-09-21T15:54:59;1.27;;;0.55;;
48211;SDS011;34000;48.772;9.162;2022-09-21T15:57:33;0.77;;;0.50;;
48211;SDS011;34000;48.772;9.162;2022-09-21T16:00:04;2.15;;;0.60;;
48211;SDS011;34000;48.772;9.162;2022-09-21T16:02:40;0.77;;;0.60;;
48211;SDS011;34000;48.772;9.162;2022-09-21T16:05:13;0.70;;;0.70;;
48211;SDS011;34000;48.772;9.162;2022-09-21T16:07:39;1.20;;;0.50;;
48211;SDS011;34000;48.772;9.162;2022-09-21T16:10:39;1.58;;;0.60;;
48211;SDS011;34000;48.772;9.162;2022-09-21T16:13:08;0.50;;;0.50;;
48211;SDS011;34000;48.772;9.162;2022-09-21T16:16:10;0.43;;;0.43;;
48211;SDS011;34000;48.772;9.162;2022-09-21T16:18:48;1.00;;;0.50;;
48211;SDS011;34000;48.772;9.162;2022-09-21T16:21:23;0.90;;;0.50;;
48211;SDS011;34000;48.772;9.162;2022-09-21T16:23:52;0.77;;;0.57;;
48211;SDS011;34000;48.772;9.162;2022-09-21T16:26:24;0.82;;;0.70;;
48211;SDS011;34000;48.772;9.162;2022-09-21T16:28:56;0.55;;;0.55;;
48211;SDS011;34000;48.772;9.162;2022-09-21T16:31:40;0.47;;;0.45;;
48211;SDS011;34000;48.772;9.162;2022-09-21T16:36:46;2.15;;;0.80;;
48211;SDS011;34000;48.772;9.162;2022-09-21T16:39:14;1.85;;;0.73;;
48211;SDS011;34000;48.772;9.162;2022-09-21T16:41:43;0.68;;;0.65;;
48211;SDS011;34000;48.772;9.162;2022-09-21T16:46:50;0.75;;;0.60;;
48211;SDS011;34000;48.772;9.162;2022-09-21T16:49:18;0.98;;;0.60;;
48211;SDS011;34000;48.772;9.162;2022-09-21T16:51:46;1.45;;;0.60;;
48211;SDS011;34000;48.772;9.162;2022-09-21T16:54:16;0.90;;;0.70;;
48211;SDS011;34000;48.772;9.162;2022-09-21T16:56:42;0.80;;;0.70;;
48211;SDS011;34000;48.772;9.162;2022-09-21T16:59:16;1.38;;;0.80;;
48211;SDS011;34000;48.772;9.162;2022-09-21T17:01:51;2.17;;;0.88;;
48211;SDS011;34000;48.772;9.162;2022-09-21T17:04:19;3.93;;;1.10;;
48211;SDS011;34000;48.772;9.162;2022-09-21T17:06:50;1.05;;;0.88;;
48211;SDS011;34000;48.772;9.162;2022-09-21T17:09:18;1.42;;;1.02;;
48211;SDS011;34000;48.772;9.162;2022-09-21T17:11:50;0.70;;;0.70;;
48211;SDS011;34000;48.772;9.162;2022-09-21T17:14:17;1.10;;;0.80;;
48211;SDS011;34000;48.772;9.162;2022-09-21T17:16:51;0.80;;;0.80;;
48211;SDS011;34000;48.772;9.162;2022-09-21T17:19:18;2.22;;;1.00;;
48211;SDS011;34000;48.772;9.162;2022-09-21T17:21:45;1.77;;;1.00;;
48211;SDS011;34000;48.772;9.162;2022-09-21T17:24:11;2.53;;;1.25;;
48211;SDS011;34000;48.772;9.162;2022-09-21T17:26:38;1.98;;;1.17;;
48211;SDS011;34000;48.772;9.162;2022-09-21T17:29:17;2.33;;;1.20;;
48211;SDS011;34000;48.772;9.162;2022-09-21T17:31:46;2.50;;;1.42;;
48211;SDS011;34000;48.772;9.162;2022-09-21T17:34:15;1.70;;;1.20;;
48211;SDS011;34000;48.772;9.162;2022-09-21T17:36:41;2.47;;;1.48;;
48211;SDS011;34000;48.772;9.162;2022-09-21T17:39:07;2.47;;;1.17;;
48211;SDS011;34000;48.772;9.162;2022-09-21T17:41:38;3.45;;;1.40;;
48211;SDS011;34000;48.772;9.162;2022-09-21T17:44:16;2.47;;;1.63;;
48211;SDS011;34000;48.772;9.162;2022-09-21T17:47:22;2.33;;;1.20;;
48211;SDS011;34000;48.772;9.162;2022-09-21T17:49:52;2.92;;;1.40;;
48211;SDS011;34000;48.772;9.162;2022-09-21T17:52:20;1.50;;;0.93;;
48211;SDS011;34000;48.772;9.162;2022-09-21T17:55:06;1.10;;;1.00;;
48211;SDS011;34000;48.772;9.162;2022-09-21T17:57:37;3.60;;;1.70;;
48211;SDS011;34000;48.772;9.162;2022-09-21T18:00:36;2.53;;;1.10;;
48211;SDS011;34000;48.772;9.162;2022-09-21T18:03:23;2.00;;;1.15;;
48211;SDS011;34000;48.772;9.162;2022-09-21T18:05:54;1.35;;;0.90;;
48211;SDS011;34000;48.772;9.162;2022-09-21T18:08:27;1.17;;;0.98;;
48211;SDS011;34000;48.772;9.162;2022-09-21T18:14:28;2.67;;;1.40;;
48211;SDS011;34000;48.772;9.162;2022-09-21T18:25:42;3.28;;;1.83;;
48211;SDS011;34000;48.772;9.162;2022-09-21T18:28:15;2.42;;;1.65;;
48211;SDS011;34000;48.772;9.162;2022-09-21T18:30:58;2.45;;;1.58;;
48211;SDS011;34000;48.772;9.162;2022-09-21T18:33:57;2.33;;;1.23;;